Time;durP1;ratioP1;P1;durP2;ratioP2;P2;SDS_P1;SDS_P2;PMS_P1;PMS_P2;Temp;Humidity;BMP_temperature;BMP_pressure;BME280_temperature;BME280_humidity;BME280_pressure;Samples;Min_cycle;Max_cycle;Signal;HPM_P1;HPM_P2
2022/01/15 00:00:59;;;;;;;;;;;;;;;-4.53;83.81;97291.28;10391990;28;96653;-71
2022/01/15 00:06:03;;;;;;;;;;;;;;;-4.53;84.00;97292.09;10368817;28;98009;-72
2022/01/15 00:11:06;;;;;;;;;;;;;;;-4.61;83.92;97281.19;10394542;28;97342;-72
2022/01/15 00:16:11;;;;;;;;;;;;;;;-4.63;84.68;97284.66;10391770;28;97083;-71
2022/01/15 00:21:15;;;;;;;;;;;;;;;-4.61;83.95;97281.19;10384842;28;97325;-71
2022/01/15 00:26:18;;;;;;;;;;;;;;;-4.60;84.17;97280.34;10390107;28;97008;-74
2022/01/15 00:31:21;;;;;;;;;;;;;;;-4.64;83.52;97276.19;10390570;28;96860;-74
2022/01/15 00:36:25;;;;;;;;;;;;;;;-4.68;84.34;97272.84;10385250;28;97452;-74
2022/01/15 00:41:28;;;;;;;;;;;;;;;-4.72;84.30;97270.38;10388361;28;98095;-76
2022/01/15 00:46:30;;;;;;;;;;;;;;;-4.74;84.58;97269.56;10395493;27;96935;-73
2022/01/15 00:51:34;;;;;;;;;;;;;;;-4.80;84.14;97264.59;10393957;28;96770;-74
2022/01/15 00:56:37;;;;;;;;;;;;;;;-4.91;83.47;97255.41;10394446;28;97049;-73
2022/01/15 01:01:40;;;;;;;;;;;;;;;-4.99;83.42;97257.28;10395304;28;96961;-73
2022/01/15 01:06:44;;;;;;;;;;;;;;;-5.06;83.59;97245.53;10396107;28;97246;-73
2022/01/15 01:11:53;;;;;;;;;;;;;;;-5.10;83.52;97238.81;10392091;28;96969;-73
2022/01/15 01:27:45;;;;;;;;;;;;;;;-5.20;83.67;97222.03;10392111;28;96801;-73
2022/01/15 01:33:01;;;;;;;;;;;;;;;-5.29;84.42;97226.41;10391705;28;97162;-73
2022/01/15 01:38:17;;;;;;;;;;;;;;;-5.25;83.85;97215.31;10394428;28;96781;-75
2022/01/15 01:48:40;;;;;;;;;;;;;;;-5.29;83.49;97213.66;10392332;28;97442;-73
2022/01/15 01:53:44;;;;;;;;;;;;;;;-5.36;83.10;97213.81;10390774;28;97013;-73
2022/01/15 01:58:47;;;;;;;;;;;;;;;-5.41;83.80;97211.34;10394824;28;97093;-73
2022/01/15 02:03:50;;;;;;;;;;;;;;;-5.51;84.27;97212.38;10392940;28;99701;-74
2022/01/15 02:08:56;;;;;;;;;;;;;;;-5.53;84.26;97211.56;10403834;28;96961;-73
2022/01/15 02:13:59;;;;;;;;;;;;;;;-5.51;84.39;97209.81;10395175;28;96937;-75
2022/01/15 02:19:01;;;;;;;;;;;;;;;-5.51;84.18;97202.19;10394833;28;96750;-73
2022/01/15 02:24:05;;;;;;;;;;;;;;;-5.53;84.02;97198.81;10388508;28;96859;-77
2022/01/15 02:29:09;;;;;;;;;;;;;;;-5.53;85.04;97193.72;10394021;28;97193;-74
2022/01/15 02:34:12;;;;;;;;;;;;;;;-5.49;85.08;97187.72;10394594;28;97205;-73
2022/01/15 02:39:15;;;;;;;;;;;;;;;-5.51;84.25;97181.81;10388301;28;96964;-71
2022/01/15 02:44:19;;;;;;;;;;;;;;;-5.53;84.12;97178.47;10392679;28;96746;-71
2022/01/15 02:49:22;;;;;;;;;;;;;;;-5.60;84.37;97179.44;10394317;28;97079;-73
2022/01/15 02:54:27;;;;;;;;;;;;;;;-5.60;84.34;97172.63;10389086;28;97429;-73
2022/01/15 02:59:30;;;;;;;;;;;;;;;-5.67;83.85;97156.59;10390171;28;96928;-73
2022/01/15 03:04:32;;;;;;;;;;;;;;;-5.71;83.83;97159.25;10392457;28;98707;-75
2022/01/15 03:09:39;;;;;;;;;;;;;;;-5.75;83.67;97157.59;10389088;28;96725;-73
2022/01/15 03:14:44;;;;;;;;;;;;;;;-5.76;83.80;97150.84;10388889;28;96949;-73
2022/01/15 03:19:47;;;;;;;;;;;;;;;-5.78;84.35;97148.34;10393262;28;97383;-73
2022/01/15 03:24:51;;;;;;;;;;;;;;;-5.76;84.26;97144.06;10391301;28;99747;-73
2022/01/15 03:29:54;;;;;;;;;;;;;;;-5.78;84.36;97143.25;10386398;28;96894;-73
2022/01/15 03:34:56;;;;;;;;;;;;;;;-5.79;84.91;97146.66;10392308;28;96931;-73
2022/01/15 03:40:00;;;;;;;;;;;;;;;-5.77;85.10;97137.31;10392988;28;96689;-73
2022/01/15 03:45:04;;;;;;;;;;;;;;;-5.78;84.33;97137.31;10381417;28;97079;-73
2022/01/15 03:50:07;;;;;;;;;;;;;;;-5.84;84.27;97146.75;10391215;28;96840;-73
2022/01/15 03:55:12;;;;;;;;;;;;;;;-5.87;84.04;97151.03;10391289;28;96984;-73
2022/01/15 04:00:16;;;;;;;;;;;;;;;-5.93;83.74;97143.50;10384887;28;96734;-73
2022/01/15 04:05:19;;;;;;;;;;;;;;;-5.92;83.85;97147.72;10390815;28;96766;-73
2022/01/15 04:10:23;;;;;;;;;;;;;;;-5.91;83.94;97134.13;10391545;28;96906;-73
2022/01/15 04:15:26;;;;;;;;;;;;;;;-5.88;83.83;97126.44;10385772;28;97616;-73
2022/01/15 04:20:29;;;;;;;;;;;;;;;-5.96;83.75;97124.03;10401655;27;96938;-73
2022/01/15 04:25:33;;;;;;;;;;;;;;;-6.06;83.52;97133.53;10398338;28;97971;-73
2022/01/15 04:30:36;;;;;;;;;;;;;;;-6.09;83.54;97133.56;10394749;28;96802;-73
2022/01/15 04:35:39;;;;;;;;;;;;;;;-6.15;83.36;97133.69;10395172;28;96727;-73
2022/01/15 04:40:43;;;;;;;;;;;;;;;-6.17;83.64;97132.00;10397552;28;98141;-73
2022/01/15 04:45:46;;;;;;;;;;;;;;;-6.16;83.83;97136.25;10384904;28;97759;-74
2022/01/15 04:50:49;;;;;;;;;;;;;;;-6.21;83.77;97133.75;10392723;28;99682;-73
2022/01/15 04:55:53;;;;;;;;;;;;;;;-6.28;83.46;97127.09;10396684;28;97354;-73
2022/01/15 05:00:55;;;;;;;;;;;;;;;-6.38;83.57;97116.22;10393564;28;96897;-75
2022/01/15 05:05:58;;;;;;;;;;;;;;;-6.38;83.72;97112.00;10406416;28;96755;-73
2022/01/15 05:11:12;;;;;;;;;;;;;;;-6.37;83.84;97120.44;10394633;28;97860;-73
2022/01/15 05:16:14;;;;;;;;;;;;;;;-6.34;83.92;97125.50;10408129;28;98451;-74
2022/01/15 05:21:17;;;;;;;;;;;;;;;-6.31;83.91;97122.03;10392082;28;97093;-73
2022/01/15 05:26:21;;;;;;;;;;;;;;;-6.28;84.56;97122.00;10395229;28;96839;-73
2022/01/15 05:31:24;;;;;;;;;;;;;;;-6.31;84.73;97127.13;10396366;28;96868;-72
2022/01/15 05:36:27;;;;;;;;;;;;;;;-6.25;85.70;97124.50;10391317;28;97045;-73
2022/01/15 05:41:30;;;;;;;;;;;;;;;-6.07;86.33;97131.81;10400867;28;97121;-73
2022/01/15 05:46:34;;;;;;;;;;;;;;;-5.85;86.15;97132.31;10396243;28;96809;-75
2022/01/15 05:51:37;;;;;;;;;;;;;;;-5.63;86.03;97125.16;10392917;28;96832;-74
2022/01/15 05:56:42;;;;;;;;;;;;;;;-5.46;85.79;97121.47;10390913;28;97320;-73
2022/01/15 06:01:44;;;;;;;;;;;;;;;-5.32;85.58;97118.66;10395977;28;97268;-73
2022/01/15 06:06:48;;;;;;;;;;;;;;;-5.16;86.30;97114.09;10394240;28;96937;-73
2022/01/15 06:11:59;;;;;;;;;;;;;;;-5.05;86.70;97107.09;10388511;28;96807;-73
2022/01/15 06:17:03;;;;;;;;;;;;;;;-4.96;86.10;97099.25;10393439;28;96703;-74
2022/01/15 06:22:05;;;;;;;;;;;;;;;-4.83;86.24;97104.06;10394664;28;97624;-73
2022/01/15 06:27:11;;;;;;;;;;;;;;;-4.78;85.84;97108.19;10386943;28;97002;-73
2022/01/15 06:32:14;;;;;;;;;;;;;;;-4.65;86.72;97108.75;10390386;28;96904;-73
2022/01/15 06:37:17;;;;;;;;;;;;;;;-4.54;86.03;97101.72;10394251;28;96800;-74
2022/01/15 06:42:20;;;;;;;;;;;;;;;-4.49;85.56;97112.63;10386590;28;96688;-73
2022/01/15 06:47:23;;;;;;;;;;;;;;;-4.40;86.92;97113.31;10391682;27;96958;-73
2022/01/15 06:52:26;;;;;;;;;;;;;;;-4.33;87.07;97114.84;10392190;28;96834;-73
2022/01/15 06:57:30;;;;;;;;;;;;;;;-4.25;86.33;97107.84;10388284;28;97983;-74
2022/01/15 07:02:32;;;;;;;;;;;;;;;-4.21;86.08;97114.56;10391432;28;96850;-73
2022/01/15 07:07:40;;;;;;;;;;;;;;;-4.12;86.04;97113.50;10393129;28;96712;-74
2022/01/15 07:12:44;;;;;;;;;;;;;;;-4.03;86.06;97109.91;10390925;28;96905;-73
2022/01/15 07:17:47;;;;;;;;;;;;;;;-3.99;87.28;97103.84;10387519;28;96966;-73
2022/01/15 07:22:51;;;;;;;;;;;;;;;-3.92;87.00;97101.09;10391976;28;97017;-73
2022/01/15 07:27:55;;;;;;;;;;;;;;;-3.87;87.52;97112.94;10390243;28;96828;-73
2022/01/15 07:32:57;;;;;;;;;;;;;;;-3.81;86.40;97118.72;10386552;28;96762;-74
2022/01/15 07:38:00;;;;;;;;;;;;;;;-3.81;86.85;97118.72;10392626;28;96965;-76
2022/01/15 07:43:08;;;;;;;;;;;;;;;-3.87;86.70;97123.97;10390967;28;96850;-73
2022/01/15 07:48:10;;;;;;;;;;;;;;;-3.77;87.17;97120.31;10385685;28;99785;-73
2022/01/15 07:53:13;;;;;;;;;;;;;;;-3.61;88.33;97127.59;10387816;27;97106;-73
2022/01/15 07:58:17;;;;;;;;;;;;;;;-3.52;87.29;97124.78;10391000;28;96992;-71
2022/01/15 08:03:20;;;;;;;;;;;;;;;-3.36;87.22;97123.53;10386094;28;96754;-71
2022/01/15 08:08:24;;;;;;;;;;;;;;;-3.25;87.85;97117.25;10388695;28;105713;-71
2022/01/15 08:13:30;;;;;;;;;;;;;;;-3.19;86.95;97112.00;10383763;28;97076;-71
2022/01/15 08:18:33;;;;;;;;;;;;;;;-3.11;87.87;97104.94;10387945;28;96746;-71
2022/01/15 08:23:38;;;;;;;;;;;;;;;-3.02;88.01;97109.78;10387702;28;96823;-72
2022/01/15 08:28:42;;;;;;;;;;;;;;;-2.93;87.43;97107.88;10389953;28;96708;-71
2022/01/15 08:33:45;;;;;;;;;;;;;;;-2.91;87.83;97121.44;10388254;28;96972;-71
2022/01/15 08:38:47;;;;;;;;;;;;;;;-2.95;88.23;97114.75;10386188;28;97576;-71
2022/01/15 08:44:00;;;;;;;;;;;;;;;-2.84;88.58;97126.31;10389473;28;98314;-71
2022/01/15 08:49:03;;;;;;;;;;;;;;;-2.66;87.82;97114.75;10389201;28;97120;-71
2022/01/15 08:54:06;;;;;;;;;;;;;;;-2.61;88.27;97124.81;10383840;28;96885;-71
2022/01/15 08:59:10;;;;;;;;;;;;;;;-2.52;87.78;97118.63;10389615;28;96896;-72
2022/01/15 09:04:13;;;;;;;;;;;;;;;-2.48;88.43;97118.47;10388950;28;97291;-71
2022/01/15 09:09:16;;;;;;;;;;;;;;;-2.53;88.73;97117.75;10405226;28;96743;-71
2022/01/15 09:14:20;;;;;;;;;;;;;;;-2.62;88.21;97116.31;10396477;28;96997;-71
2022/01/15 09:19:22;;;;;;;;;;;;;;;-2.66;87.72;97122.41;10396504;28;98116;-72
2022/01/15 09:24:25;;;;;;;;;;;;;;;-2.69;88.64;97117.38;10392323;28;96868;-71
2022/01/15 09:34:49;;;;;;;;;;;;;;;-2.45;88.35;97125.22;10396365;28;97901;-71
2022/01/15 09:39:52;;;;;;;;;;;;;;;-2.31;89.14;97109.44;10395307;28;97211;-71
2022/01/15 09:44:56;;;;;;;;;;;;;;;-2.14;89.19;97108.91;10391098;28;96831;-72
2022/01/15 09:50:00;;;;;;;;;;;;;;;-2.08;88.59;97106.16;10395570;28;96948;-71
2022/01/15 09:55:05;;;;;;;;;;;;;;;-1.92;88.53;97117.56;10393936;28;101749;-73
2022/01/15 10:00:11;;;;;;;;;;;;;;;-1.78;88.91;97108.59;10386735;28;101206;-71
2022/01/15 10:05:14;;;;;;;;;;;;;;;-1.62;88.07;97094.41;10399761;28;96812;-72
2022/01/15 10:10:20;;;;;;;;;;;;;;;-1.49;88.69;97103.31;10392317;28;96866;-71
2022/01/15 10:15:24;;;;;;;;;;;;;;;-1.45;89.36;97104.06;10388353;28;97147;-72
2022/01/15 10:20:37;;;;;;;;;;;;;;;-1.30;89.30;97097.56;10404677;28;97005;-71
2022/01/15 10:25:39;;;;;;;;;;;;;;;-1.05;88.59;97097.53;10407091;28;97028;-74
2022/01/15 10:30:46;;;;;;;;;;;;;;;-0.93;88.30;97096.25;10390804;28;96967;-72
2022/01/15 10:35:49;;;;;;;;;;;;;;;-0.87;88.21;97090.91;10393799;28;97592;-71
2022/01/15 10:40:55;;;;;;;;;;;;;;;-0.83;88.17;97092.44;10392904;28;96899;-72
2022/01/15 10:46:01;;;;;;;;;;;;;;;-0.68;88.31;97077.38;10391404;28;96856;-72
2022/01/15 10:51:05;;;;;;;;;;;;;;;-0.57;88.34;97077.81;10381233;28;96975;-72
2022/01/15 10:56:08;;;;;;;;;;;;;;;-0.47;88.02;97075.75;10393067;28;97172;-72
2022/01/15 11:01:13;;;;;;;;;;;;;;;-0.38;88.11;97058.22;10392019;28;97069;-72
2022/01/15 11:06:34;;;;;;;;;;;;;;;-0.30;88.41;97064.78;10387408;28;97031;-73
2022/01/15 11:11:53;;;;;;;;;;;;;;;-0.28;87.92;97057.88;10378730;28;97923;-71
2022/01/15 11:16:57;;;;;;;;;;;;;;;-0.24;88.15;97059.41;10389095;28;96827;-73
2022/01/15 11:22:00;;;;;;;;;;;;;;;-0.36;87.48;97056.44;10385602;28;96739;-73
2022/01/15 11:27:03;;;;;;;;;;;;;;;-0.30;88.54;97051.94;10369575;28;98382;-74
2022/01/15 11:32:12;;;;;;;;;;;;;;;-0.42;88.01;97046.41;10390308;28;97646;-74
2022/01/15 11:37:16;;;;;;;;;;;;;;;-0.60;88.20;97042.00;10381424;28;97944;-73
2022/01/15 11:42:26;;;;;;;;;;;;;;;-0.71;88.42;97038.09;10374778;28;98132;-74
2022/01/15 11:47:31;;;;;;;;;;;;;;;-0.64;88.16;97035.31;10380134;28;96976;-73
2022/01/15 11:52:35;;;;;;;;;;;;;;;-0.62;88.52;97024.09;10379176;28;97183;-73
2022/01/15 11:57:45;;;;;;;;;;;;;;;-0.57;88.30;97027.31;10380727;28;97146;-73
2022/01/15 12:03:09;;;;;;;;;;;;;;;-0.58;88.57;97017.97;10384150;28;97052;-73
2022/01/15 12:08:25;;;;;;;;;;;;;;;-0.44;88.78;97007.16;10396827;28;97170;-73
2022/01/15 12:13:29;;;;;;;;;;;;;;;-0.28;88.62;97002.22;10387404;28;101203;-73
2022/01/15 12:18:44;;;;;;;;;;;;;;;-0.39;87.89;97005.22;10384059;28;97293;-73
2022/01/15 12:23:46;;;;;;;;;;;;;;;-0.61;87.53;96999.28;10383094;28;97386;-73
2022/01/15 12:28:49;;;;;;;;;;;;;;;-0.50;88.70;96993.72;10389061;28;97174;-73
2022/01/15 12:33:54;;;;;;;;;;;;;;;-0.55;88.08;96983.63;10380995;28;97344;-73
2022/01/15 12:38:56;;;;;;;;;;;;;;;-0.53;88.73;96984.38;10382057;28;96733;-73
2022/01/15 12:43:59;;;;;;;;;;;;;;;-0.42;88.43;96974.53;10388800;28;97279;-73
2022/01/15 12:49:08;;;;;;;;;;;;;;;-0.28;88.83;96958.56;10384447;28;97071;-73
2022/01/15 12:54:11;;;;;;;;;;;;;;;-0.36;88.07;96956.31;10381011;28;97184;-73
2022/01/15 12:59:14;;;;;;;;;;;;;;;-0.26;88.57;96949.06;10380277;28;98498;-73
2022/01/15 13:04:18;;;;;;;;;;;;;;;-0.11;88.70;96936.47;10371293;28;97245;-74
2022/01/15 13:09:21;;;;;;;;;;;;;;;0.01;88.45;96931.66;10397739;28;97043;-73
2022/01/15 13:14:23;;;;;;;;;;;;;;;0.08;88.15;96924.53;10389708;28;97087;-73
2022/01/15 13:19:36;;;;;;;;;;;;;;;0.19;88.26;96921.50;10382650;28;99001;-73
2022/01/15 13:24:39;;;;;;;;;;;;;;;0.26;88.04;96915.19;10381712;28;98449;-73
2022/01/15 13:29:42;;;;;;;;;;;;;;;0.02;87.69;96909.38;10385065;28;97237;-73
2022/01/15 13:34:48;;;;;;;;;;;;;;;-0.21;87.53;96910.38;10392026;28;97165;-73
2022/01/15 13:39:51;;;;;;;;;;;;;;;-0.36;87.85;96902.41;10387209;28;97119;-73
2022/01/15 13:44:54;;;;;;;;;;;;;;;-0.50;88.48;96899.56;10378545;28;98494;-73
2022/01/15 13:55:24;;;;;;;;;;;;;;;-0.57;88.37;96903.28;10385812;28;96991;-74
2022/01/15 14:00:28;;;;;;;;;;;;;;;-0.72;88.08;96909.88;10386183;28;97794;-73
2022/01/15 14:05:33;;;;;;;;;;;;;;;-0.65;88.43;96900.19;10388063;28;96927;-73
2022/01/15 14:10:37;;;;;;;;;;;;;;;-0.58;88.40;96896.47;10389806;28;97316;-73
2022/01/15 14:15:42;;;;;;;;;;;;;;;-0.60;87.96;96895.72;10386434;28;96788;-73
2022/01/15 14:21:04;;;;;;;;;;;;;;;-0.68;88.31;96890.06;10387851;28;97163;-73
2022/01/15 14:26:15;;;;;;;;;;;;;;;-0.57;88.42;96893.03;10389974;28;97752;-73
2022/01/15 14:31:18;;;;;;;;;;;;;;;-0.62;87.99;96894.94;10393423;28;97372;-73
2022/01/15 14:36:23;;;;;;;;;;;;;;;-0.71;88.18;96885.91;10384723;28;96935;-72
2022/01/15 14:41:26;;;;;;;;;;;;;;;-0.74;87.83;96886.03;10387605;28;97296;-73
2022/01/15 14:46:29;;;;;;;;;;;;;;;-0.90;88.38;96880.69;10389562;28;98061;-73
2022/01/15 14:51:33;;;;;;;;;;;;;;;-1.11;87.98;96882.38;10380822;28;97846;-72
2022/01/15 14:56:35;;;;;;;;;;;;;;;-1.21;88.60;96875.94;10373988;28;97337;-73
2022/01/15 15:01:38;;;;;;;;;;;;;;;-1.16;88.18;96879.97;10377125;28;97911;-73
2022/01/15 15:06:42;;;;;;;;;;;;;;;-1.15;88.91;96881.66;10379017;28;97365;-74
2022/01/15 15:11:46;;;;;;;;;;;;;;;-1.17;88.77;96883.44;10372349;28;97361;-75
2022/01/15 15:16:48;;;;;;;;;;;;;;;-1.17;88.48;96883.44;10378785;28;97748;-76
2022/01/15 15:21:52;;;;;;;;;;;;;;;-1.29;88.21;96868.56;10378106;28;97282;-74
2022/01/15 15:26:55;;;;;;;;;;;;;;;-1.30;88.65;96866.88;10373343;28;97305;-75
2022/01/15 15:31:58;;;;;;;;;;;;;;;-1.28;88.40;96870.22;10377529;28;97177;-74
2022/01/15 15:37:02;;;;;;;;;;;;;;;-1.32;88.10;96868.66;10380894;28;97520;-74
2022/01/15 15:42:05;;;;;;;;;;;;;;;-1.44;87.70;96875.09;10378851;28;97658;-74
2022/01/15 15:47:08;;;;;;;;;;;;;;;-1.44;87.79;96874.25;10386145;28;97319;-75
2022/01/15 15:52:12;;;;;;;;;;;;;;;-1.53;87.84;96871.16;10387585;28;97178;-74
2022/01/15 15:57:14;;;;;;;;;;;;;;;-1.58;88.83;96873.06;10382984;28;96974;-74
2022/01/15 16:02:17;;;;;;;;;;;;;;;-1.63;88.40;96867.25;10386273;28;97419;-74
2022/01/15 16:07:24;;;;;;;;;;;;;;;-1.49;88.33;96871.88;10386826;28;96854;-74
2022/01/15 16:12:27;;;;;;;;;;;;;;;-1.38;88.26;96874.84;10374020;28;97916;-74
2022/01/15 16:17:30;;;;;;;;;;;;;;;-1.27;87.97;96866.75;10376038;28;97140;-74
2022/01/15 16:22:34;;;;;;;;;;;;;;;-1.17;87.57;96872.34;10386755;28;97541;-74
2022/01/15 16:27:37;;;;;;;;;;;;;;;-1.14;87.48;96875.63;10382485;28;97050;-75
2022/01/15 16:32:39;;;;;;;;;;;;;;;-1.24;87.06;96874.31;10377895;28;97034;-74
2022/01/15 16:37:44;;;;;;;;;;;;;;;-1.25;87.96;96876.97;10385681;28;96818;-74
2022/01/15 16:42:47;;;;;;;;;;;;;;;-1.23;87.78;96867.47;10376286;28;97659;-74
2022/01/15 16:47:49;;;;;;;;;;;;;;;-1.31;87.35;96873.75;10380898;28;99787;-74
2022/01/15 16:52:54;;;;;;;;;;;;;;;-1.38;87.21;96886.81;10385732;28;97013;-74
2022/01/15 16:57:57;;;;;;;;;;;;;;;-1.49;87.85;96877.81;10384533;28;97249;-74
2022/01/15 17:02:59;;;;;;;;;;;;;;;-1.58;88.27;96878.19;10380824;28;96776;-75
2022/01/15 17:08:04;;;;;;;;;;;;;;;-1.52;87.82;96882.22;10385681;28;97457;-74
2022/01/15 17:13:07;;;;;;;;;;;;;;;-1.50;87.38;96876.16;10376654;28;97312;-75
2022/01/15 17:18:10;;;;;;;;;;;;;;;-1.47;87.92;96878.59;10365840;28;98369;-74
2022/01/15 17:23:14;;;;;;;;;;;;;;;-1.62;88.01;96879.19;10384466;28;97879;-75
2022/01/15 17:28:16;;;;;;;;;;;;;;;-1.79;87.71;96873.88;10386459;28;97144;-76
2022/01/15 17:33:20;;;;;;;;;;;;;;;-1.83;87.81;96875.66;10393422;28;97124;-74
2022/01/15 17:38:23;;;;;;;;;;;;;;;-1.81;88.09;96876.47;10389716;28;97983;-74
2022/01/15 17:43:26;;;;;;;;;;;;;;;-1.92;88.86;96879.41;10391886;28;97444;-75
2022/01/15 17:48:29;;;;;;;;;;;;;;;-2.11;89.05;96875.84;10387088;28;98126;-75
2022/01/15 17:53:33;;;;;;;;;;;;;;;-2.24;88.79;96868.59;10390250;28;97324;-74
2022/01/15 17:58:36;;;;;;;;;;;;;;;-2.27;88.90;96873.81;10393886;28;99782;-75
2022/01/15 18:03:42;;;;;;;;;;;;;;;-2.25;88.28;96876.31;10390628;28;98238;-74
2022/01/15 18:08:52;;;;;;;;;;;;;;;-2.28;89.48;96884.97;10405541;28;98230;-74
2022/01/15 18:13:56;;;;;;;;;;;;;;;-2.34;88.72;96872.38;10394416;28;97103;-75
2022/01/15 18:18:59;;;;;;;;;;;;;;;-2.35;89.53;96875.84;10394244;28;96712;-75
2022/01/15 18:24:04;;;;;;;;;;;;;;;-2.28;88.57;96871.31;10372231;28;96768;-75
2022/01/15 18:29:07;;;;;;;;;;;;;;;-2.20;88.52;96873.63;10391273;28;96948;-74
2022/01/15 18:34:10;;;;;;;;;;;;;;;-2.23;89.43;96872.00;10394359;28;98368;-75
2022/01/15 18:39:15;;;;;;;;;;;;;;;-2.17;89.40;96873.53;10398996;28;97196;-75
2022/01/15 18:44:17;;;;;;;;;;;;;;;-2.07;88.62;96874.88;10385735;28;98294;-75
2022/01/15 18:49:20;;;;;;;;;;;;;;;-2.03;88.28;96884.91;10393212;28;97479;-75
2022/01/15 18:54:24;;;;;;;;;;;;;;;-1.97;88.30;96881.28;10398772;28;97210;-74
2022/01/15 18:59:27;;;;;;;;;;;;;;;-1.92;88.28;96879.41;10391979;28;97131;-74
2022/01/15 19:04:30;;;;;;;;;;;;;;;-2.05;88.79;96875.63;10402086;28;97781;-75
2022/01/15 19:09:35;;;;;;;;;;;;;;;-2.30;88.78;96878.22;10400691;28;96903;-75
2022/01/15 19:14:38;;;;;;;;;;;;;;;-2.25;89.32;96882.28;10389720;28;97474;-74
2022/01/15 19:19:42;;;;;;;;;;;;;;;-2.16;89.27;96890.53;10396510;28;97173;-74
2022/01/15 19:24:46;;;;;;;;;;;;;;;-2.14;87.96;96891.31;10397787;28;97122;-76
2022/01/15 19:29:49;;;;;;;;;;;;;;;-2.25;88.97;96902.75;10384481;28;97358;-74
2022/01/15 19:34:52;;;;;;;;;;;;;;;-2.37;88.56;96931.31;10390047;28;97853;-74
2022/01/15 19:39:56;;;;;;;;;;;;;;;-2.38;88.95;96955.25;10381223;28;97251;-75
2022/01/15 19:44:59;;;;;;;;;;;;;;;-2.42;88.34;97010.81;10373795;28;96742;-76
2022/01/15 19:50:06;;;;;;;;;;;;;;;-2.47;87.91;97009.28;10393962;28;97346;-74
2022/01/15 19:55:22;;;;;;;;;;;;;;;-2.56;88.64;96969.47;10387849;27;97361;-74
2022/01/15 20:00:27;;;;;;;;;;;;;;;-2.62;88.91;96921.91;10381215;28;97253;-74
2022/01/15 20:05:31;;;;;;;;;;;;;;;-2.62;89.51;96811.09;10396368;28;98360;-75
2022/01/15 20:10:35;;;;;;;;;;;;;;;-2.70;89.00;96778.09;10388387;28;96841;-74
2022/01/15 20:15:38;;;;;;;;;;;;;;;-2.79;89.39;96834.69;10397806;28;96991;-74
2022/01/15 20:20:42;;;;;;;;;;;;;;;-2.85;88.22;96880.94;10383546;28;96822;-74
2022/01/15 20:25:47;;;;;;;;;;;;;;;-2.89;88.70;96918.53;10390168;28;99861;-75
2022/01/15 20:30:49;;;;;;;;;;;;;;;-2.85;89.17;96929.50;10384737;28;97265;-74
2022/01/15 20:35:53;;;;;;;;;;;;;;;-2.84;89.56;96913.25;10372115;28;97319;-75
2022/01/15 20:41:03;;;;;;;;;;;;;;;-2.81;88.42;96897.81;10408772;28;97295;-75
2022/01/15 20:46:08;;;;;;;;;;;;;;;-2.73;89.81;96879.66;10394637;28;97501;-76
2022/01/15 20:51:13;;;;;;;;;;;;;;;-2.77;89.30;96899.38;10386799;28;97347;-74
2022/01/15 20:56:18;;;;;;;;;;;;;;;-2.69;89.81;96937.53;10395958;28;97214;-74
2022/01/15 21:01:23;;;;;;;;;;;;;;;-2.58;89.68;96947.41;10385989;28;97096;-76
2022/01/15 21:06:27;;;;;;;;;;;;;;;-2.50;89.08;96922.41;10386823;28;97314;-75
2022/01/15 21:11:31;;;;;;;;;;;;;;;-2.54;89.23;96902.91;10403740;28;97325;-75
2022/01/15 21:16:35;;;;;;;;;;;;;;;-2.71;89.04;96886.41;10375184;28;97189;-75
2022/01/15 21:21:38;;;;;;;;;;;;;;;-2.66;88.68;96893.94;10399983;28;97258;-74
2022/01/15 21:26:44;;;;;;;;;;;;;;;-2.51;89.28;96915.59;10390364;28;97083;-74
2022/01/15 21:31:47;;;;;;;;;;;;;;;-2.50;88.82;96912.16;10391091;28;97056;-75
2022/01/15 21:36:49;;;;;;;;;;;;;;;-2.51;88.14;96913.03;10386911;28;101792;-75
2022/01/15 21:41:53;;;;;;;;;;;;;;;-2.51;89.02;96913.03;10405903;28;97398;-74
2022/01/15 21:46:56;;;;;;;;;;;;;;;-2.39;88.92;96930.53;10391272;28;96889;-74
2022/01/15 21:51:59;;;;;;;;;;;;;;;-2.30;88.35;96935.38;10380364;28;98641;-74
2022/01/15 21:57:03;;;;;;;;;;;;;;;-2.28;89.39;96936.16;10388837;28;97072;-76
2022/01/15 22:02:06;;;;;;;;;;;;;;;-2.27;88.18;96919.06;10380861;28;97485;-74
2022/01/15 22:07:09;;;;;;;;;;;;;;;-2.42;88.94;96935.75;10399323;28;97928;-76
2022/01/15 22:12:22;;;;;;;;;;;;;;;-2.62;89.18;96924.47;10389336;27;97254;-73
2022/01/15 22:17:25;;;;;;;;;;;;;;;-2.71;89.93;96929.06;10389811;28;97239;-74
2022/01/15 22:22:28;;;;;;;;;;;;;;;-2.66;89.27;96930.56;10388190;28;97301;-76
2022/01/15 22:27:32;;;;;;;;;;;;;;;-2.68;88.43;96924.69;10386402;28;97328;-74
2022/01/15 22:32:34;;;;;;;;;;;;;;;-2.73;88.98;96931.66;10399225;28;97132;-74
2022/01/15 22:37:37;;;;;;;;;;;;;;;-2.55;89.04;96942.19;10383074;28;97321;-75
2022/01/15 22:42:41;;;;;;;;;;;;;;;-2.53;88.47;96930.19;10389992;28;97199;-77
2022/01/15 22:47:44;;;;;;;;;;;;;;;-2.60;89.05;96932.91;10395631;28;97079;-75
2022/01/15 22:52:47;;;;;;;;;;;;;;;-2.70;89.04;96936.66;10395547;28;97280;-75
2022/01/15 22:57:54;;;;;;;;;;;;;;;-2.78;89.31;96948.88;10397339;28;97472;-74
2022/01/15 23:03:01;;;;;;;;;;;;;;;-2.78;88.46;96959.09;10396330;28;96842;-75
2022/01/15 23:08:04;;;;;;;;;;;;;;;-2.63;89.46;96948.38;10399020;28;98105;-75
2022/01/15 23:13:16;;;;;;;;;;;;;;;-2.63;88.36;96940.72;10385442;28;102062;-75
2022/01/15 23:18:21;;;;;;;;;;;;;;;-2.82;88.75;96937.91;10383070;28;97114;-75
2022/01/15 23:23:24;;;;;;;;;;;;;;;-2.84;88.50;96913.25;10382155;28;97336;-74
2022/01/15 23:28:29;;;;;;;;;;;;;;;-2.91;88.46;96906.69;10385068;28;97228;-74
2022/01/15 23:33:32;;;;;;;;;;;;;;;-3.04;88.86;96930.06;10386463;28;97563;-74
2022/01/15 23:38:35;;;;;;;;;;;;;;;-3.05;89.14;96932.69;10389179;28;97287;-74
2022/01/15 23:43:42;;;;;;;;;;;;;;;-2.98;88.61;96900.91;10394716;28;97109;-78
2022/01/15 23:48:48;;;;;;;;;;;;;;;-3.14;88.74;96923.56;10390569;28;97361;-75
2022/01/15 23:53:50;;;;;;;;;;;;;;;-3.24;89.53;96904.28;10392108;28;97264;-74
2022/01/15 23:59:11;;;;;;;;;;;;;;;-3.04;88.92;96917.28;10395726;28;97641;-76
